sensor_id;sensor_type;location;lat;lon;timestamp;pressure;altitude;pressure_sealevel;temperature;humidity
75923;BME280;64602;47.542;19.090;2023-08-12T00:01:24;101021.94;;;16.50;74.46
75923;BME280;64602;47.542;19.090;2023-08-12T00:06:27;101038.13;;;16.41;74.82
75923;BME280;64602;47.542;19.090;2023-08-12T00:11:30;101027.44;;;16.45;74.56
75923;BME280;64602;47.542;19.090;2023-08-12T00:16:32;101020.88;;;16.36;74.77
75923;BME280;64602;47.542;19.090;2023-08-12T00:21:34;101017.03;;;16.37;75.08
75923;BME280;64602;47.542;19.090;2023-08-12T00:26:36;101011.84;;;16.30;75.33
75923;BME280;64602;47.542;19.090;2023-08-12T00:31:39;101014.03;;;16.28;75.78
75923;BME280;64602;47.542;19.090;2023-08-12T00:36:41;101015.97;;;16.12;76.18
75923;BME280;64602;47.542;19.090;2023-08-12T00:41:43;101010.75;;;16.11;76.35
75923;BME280;64602;47.542;19.090;2023-08-12T00:46:45;101011.56;;;16.06;76.53
75923;BME280;64602;47.542;19.090;2023-08-12T00:51:49;101022.00;;;16.14;76.73
75923;BME280;64602;47.542;19.090;2023-08-12T00:56:53;101006.09;;;15.96;77.15
75923;BME280;64602;47.542;19.090;2023-08-12T01:01:55;101019.53;;;15.97;77.68
75923;BME280;64602;47.542;19.090;2023-08-12T01:06:57;101004.97;;;15.92;78.02
75923;BME280;64602;47.542;19.090;2023-08-12T01:12:36;101010.75;;;15.85;78.73
75923;BME280;64602;47.542;19.090;2023-08-12T01:17:41;101018.41;;;15.73;79.40
75923;BME280;64602;47.542;19.090;2023-08-12T01:22:44;101024.94;;;15.72;79.42
75923;BME280;64602;47.542;19.090;2023-08-12T01:27:48;101018.66;;;15.81;78.91
75923;BME280;64602;47.542;19.090;2023-08-12T01:33:10;101031.53;;;15.71;79.42
75923;BME280;64602;47.542;19.090;2023-08-12T01:38:13;101032.91;;;15.73;79.40
75923;BME280;64602;47.542;19.090;2023-08-12T01:43:16;101024.34;;;15.65;79.36
75923;BME280;64602;47.542;19.090;2023-08-12T01:48:18;101024.59;;;15.63;79.70
75923;BME280;64602;47.542;19.090;2023-08-12T01:53:24;101019.97;;;15.64;79.68
75923;BME280;64602;47.542;19.090;2023-08-12T01:58:27;101025.50;;;15.74;79.69
75923;BME280;64602;47.542;19.090;2023-08-12T02:03:29;101029.56;;;15.66;80.10
75923;BME280;64602;47.542;19.090;2023-08-12T02:08:31;101012.84;;;15.52;80.58
75923;BME280;64602;47.542;19.090;2023-08-12T02:13:33;101009.78;;;15.44;80.63
75923;BME280;64602;47.542;19.090;2023-08-12T02:18:35;101012.25;;;15.40;80.30
75923;BME280;64602;47.542;19.090;2023-08-12T02:23:37;101019.91;;;15.38;80.41
75923;BME280;64602;47.542;19.090;2023-08-12T02:28:40;101017.44;;;15.36;80.50
75923;BME280;64602;47.542;19.090;2023-08-12T02:33:43;101025.62;;;15.31;80.82
75923;BME280;64602;47.542;19.090;2023-08-12T02:38:45;101013.28;;;15.24;80.61
75923;BME280;64602;47.542;19.090;2023-08-12T02:43:47;101018.75;;;15.24;80.71
75923;BME280;64602;47.542;19.090;2023-08-12T02:48:49;101007.00;;;15.23;80.69
75923;BME280;64602;47.542;19.090;2023-08-12T02:53:51;101016.81;;;15.19;80.96
75923;BME280;64602;47.542;19.090;2023-08-12T02:58:53;101014.03;;;15.09;81.36
75923;BME280;64602;47.542;19.090;2023-08-12T03:03:56;101001.47;;;15.03;81.38
75923;BME280;64602;47.542;19.090;2023-08-12T03:08:58;101002.00;;;15.05;81.67
75923;BME280;64602;47.542;19.090;2023-08-12T03:14:01;101011.84;;;15.01;81.93
75923;BME280;64602;47.542;19.090;2023-08-12T03:19:03;101019.22;;;15.00;82.09
75923;BME280;64602;47.542;19.090;2023-08-12T03:24:06;101001.62;;;14.81;82.55
75923;BME280;64602;47.542;19.090;2023-08-12T03:29:08;101017.25;;;14.90;82.61
75923;BME280;64602;47.542;19.090;2023-08-12T03:34:10;101019.09;;;14.80;82.85
75923;BME280;64602;47.542;19.090;2023-08-12T03:39:12;101025.41;;;14.85;83.11
75923;BME280;64602;47.542;19.090;2023-08-12T03:44:14;101030.94;;;14.90;82.78
75923;BME280;64602;47.542;19.090;2023-08-12T03:49:16;101031.16;;;14.84;82.72
75923;BME280;64602;47.542;19.090;2023-08-12T03:54:21;101029.22;;;14.79;83.14
75923;BME280;64602;47.542;19.090;2023-08-12T03:59:23;101044.59;;;14.90;82.92
75923;BME280;64602;47.542;19.090;2023-08-12T04:04:25;101038.84;;;14.92;82.97
75923;BME280;64602;47.542;19.090;2023-08-12T04:09:28;101040.50;;;14.93;83.00
75923;BME280;64602;47.542;19.090;2023-08-12T04:14:30;101044.28;;;14.87;83.14
75923;BME280;64602;47.542;19.090;2023-08-12T04:19:32;101046.44;;;14.85;83.03
75923;BME280;64602;47.542;19.090;2023-08-12T04:24:34;101061.81;;;14.96;82.71
75923;BME280;64602;47.542;19.090;2023-08-12T04:29:36;101060.25;;;15.05;82.38
75923;BME280;64602;47.542;19.090;2023-08-12T04:34:39;101066.00;;;15.14;81.82
75923;BME280;64602;47.542;19.090;2023-08-12T04:39:41;101060.03;;;15.17;81.60
75923;BME280;64602;47.542;19.090;2023-08-12T04:44:43;101069.38;;;15.31;80.96
75923;BME280;64602;47.542;19.090;2023-08-12T04:49:45;101065.06;;;15.46;80.41
75923;BME280;64602;47.542;19.090;2023-08-12T04:54:47;101059.59;;;15.51;79.85
75923;BME280;64602;47.542;19.090;2023-08-12T04:59:49;101056.06;;;15.60;79.69
75923;BME280;64602;47.542;19.090;2023-08-12T05:04:51;101071.22;;;15.78;78.98
75923;BME280;64602;47.542;19.090;2023-08-12T05:09:54;101070.94;;;15.80;78.15
75923;BME280;64602;47.542;19.090;2023-08-12T05:14:56;101084.66;;;15.95;77.84
75923;BME280;64602;47.542;19.090;2023-08-12T05:19:58;101075.91;;;15.98;77.74
75923;BME280;64602;47.542;19.090;2023-08-12T05:25:00;101082.19;;;15.99;77.94
75923;BME280;64602;47.542;19.090;2023-08-12T05:30:03;101081.69;;;16.02;78.21
75923;BME280;64602;47.542;19.090;2023-08-12T05:35:05;101070.16;;;16.00;78.26
75923;BME280;64602;47.542;19.090;2023-08-12T05:40:10;101080.87;;;16.17;77.90
75923;BME280;64602;47.542;19.090;2023-08-12T05:45:13;101079.22;;;16.26;77.06
75923;BME280;64602;47.542;19.090;2023-08-12T05:50:15;101072.38;;;16.39;75.73
75923;BME280;64602;47.542;19.090;2023-08-12T05:55:18;101074.28;;;16.54;74.97
75923;BME280;64602;47.542;19.090;2023-08-12T06:00:20;101083.59;;;16.73;74.26
75923;BME280;64602;47.542;19.090;2023-08-12T06:05:22;101075.38;;;16.88;73.74
75923;BME280;64602;47.542;19.090;2023-08-12T06:10:24;101070.16;;;16.97;73.09
75923;BME280;64602;47.542;19.090;2023-08-12T06:15:26;101078.31;;;17.18;72.79
75923;BME280;64602;47.542;19.090;2023-08-12T06:20:29;101069.22;;;17.27;72.07
75923;BME280;64602;47.542;19.090;2023-08-12T06:25:31;101066.44;;;17.43;71.22
75923;BME280;64602;47.542;19.090;2023-08-12T06:30:33;101070.44;;;17.61;70.98
75923;BME280;64602;47.542;19.090;2023-08-12T06:35:35;101070.97;;;17.68;69.53
75923;BME280;64602;47.542;19.090;2023-08-12T06:40:38;101071.97;;;17.87;69.84
75923;BME280;64602;47.542;19.090;2023-08-12T06:45:40;101065.59;;;17.97;69.52
75923;BME280;64602;47.542;19.090;2023-08-12T06:50:42;101063.03;;;18.06;69.74
75923;BME280;64602;47.542;19.090;2023-08-12T06:55:45;101062.94;;;18.21;69.54
75923;BME280;64602;47.542;19.090;2023-08-12T07:00:47;101058.19;;;18.32;69.43
75923;BME280;64602;47.542;19.090;2023-08-12T07:05:50;101067.41;;;18.46;68.85
75923;BME280;64602;47.542;19.090;2023-08-12T07:10:52;101076.88;;;18.64;68.28
75923;BME280;64602;47.542;19.090;2023-08-12T07:15:54;101066.84;;;18.78;67.65
75923;BME280;64602;47.542;19.090;2023-08-12T07:20:57;101069.69;;;18.97;67.75
75923;BME280;64602;47.542;19.090;2023-08-12T07:26:01;101064.31;;;19.11;66.15
75923;BME280;64602;47.542;19.090;2023-08-12T07:31:03;101060.56;;;19.26;64.81
75923;BME280;64602;47.542;19.090;2023-08-12T07:36:06;101072.66;;;19.49;64.98
75923;BME280;64602;47.542;19.090;2023-08-12T07:41:08;101068.56;;;19.65;64.32
75923;BME280;64602;47.542;19.090;2023-08-12T07:46:10;101060.94;;;19.81;63.86
75923;BME280;64602;47.542;19.090;2023-08-12T07:51:12;101076.63;;;20.00;62.91
75923;BME280;64602;47.542;19.090;2023-08-12T07:56:14;101058.56;;;20.13;62.36
75923;BME280;64602;47.542;19.090;2023-08-12T08:01:17;101063.19;;;20.31;62.17
75923;BME280;64602;47.542;19.090;2023-08-12T08:06:19;101065.00;;;20.55;61.34
75923;BME280;64602;47.542;19.090;2023-08-12T08:11:21;101071.63;;;20.73;60.62
75923;BME280;64602;47.542;19.090;2023-08-12T08:16:23;101060.50;;;20.91;59.48
75923;BME280;64602;47.542;19.090;2023-08-12T08:21:27;101058.59;;;21.20;59.54
75923;BME280;64602;47.542;19.090;2023-08-12T08:26:29;101055.19;;;21.37;58.39
75923;BME280;64602;47.542;19.090;2023-08-12T08:31:31;101057.41;;;21.62;56.83
75923;BME280;64602;47.542;19.090;2023-08-12T08:36:33;101060.25;;;21.85;56.81
75923;BME280;64602;47.542;19.090;2023-08-12T08:41:38;101063.84;;;22.08;55.65
75923;BME280;64602;47.542;19.090;2023-08-12T08:46:41;101054.13;;;22.33;54.23
75923;BME280;64602;47.542;19.090;2023-08-12T08:51:46;101043.06;;;22.55;52.95
75923;BME280;64602;47.542;19.090;2023-08-12T08:56:49;101047.59;;;22.82;52.16
75923;BME280;64602;47.542;19.090;2023-08-12T09:01:58;101056.19;;;23.12;51.57
75923;BME280;64602;47.542;19.090;2023-08-12T09:07:01;101056.97;;;23.53;50.57
75923;BME280;64602;47.542;19.090;2023-08-12T09:12:04;101052.12;;;23.84;48.99
75923;BME280;64602;47.542;19.090;2023-08-12T09:17:08;101057.84;;;24.23;48.74
75923;BME280;64602;47.542;19.090;2023-08-12T09:22:11;101045.38;;;24.64;47.91
75923;BME280;64602;47.542;19.090;2023-08-12T09:27:17;101036.09;;;24.98;46.87
75923;BME280;64602;47.542;19.090;2023-08-12T09:32:20;101032.06;;;25.46;46.34
75923;BME280;64602;47.542;19.090;2023-08-12T09:37:24;101033.19;;;25.96;45.00
75923;BME280;64602;47.542;19.090;2023-08-12T09:42:27;101035.12;;;26.50;43.54
75923;BME280;64602;47.542;19.090;2023-08-12T09:47:30;101030.31;;;26.71;42.13
75923;BME280;64602;47.542;19.090;2023-08-12T09:52:32;101020.00;;;27.21;42.05
75923;BME280;64602;47.542;19.090;2023-08-12T09:57:36;101024.34;;;27.71;41.09
75923;BME280;64602;47.542;19.090;2023-08-12T10:02:46;101015.78;;;28.20;39.96
75923;BME280;64602;47.542;19.090;2023-08-12T10:07:49;101006.78;;;28.55;39.41
75923;BME280;64602;47.542;19.090;2023-08-12T10:12:51;101000.47;;;28.90;38.72
75923;BME280;64602;47.542;19.090;2023-08-12T10:17:55;101001.69;;;29.24;37.84
75923;BME280;64602;47.542;19.090;2023-08-12T10:22:59;101008.56;;;29.46;37.24
75923;BME280;64602;47.542;19.090;2023-08-12T10:28:04;100995.00;;;29.64;36.83
75923;BME280;64602;47.542;19.090;2023-08-12T10:33:06;100996.59;;;29.65;35.51
75923;BME280;64602;47.542;19.090;2023-08-12T10:38:08;100995.88;;;30.07;34.96
75923;BME280;64602;47.542;19.090;2023-08-12T10:43:12;100992.38;;;29.91;32.72
75923;BME280;64602;47.542;19.090;2023-08-12T10:48:23;100975.72;;;30.21;32.94
75923;BME280;64602;47.542;19.090;2023-08-12T10:53:35;100970.75;;;30.30;32.36
75923;BME280;64602;47.542;19.090;2023-08-12T10:58:47;100975.94;;;30.32;31.90
75923;BME280;64602;47.542;19.090;2023-08-12T11:03:49;100971.66;;;29.76;30.53
75923;BME280;64602;47.542;19.090;2023-08-12T11:08:52;100959.78;;;29.63;30.25
75923;BME280;64602;47.542;19.090;2023-08-12T11:13:58;100957.25;;;29.74;31.39
75923;BME280;64602;47.542;19.090;2023-08-12T11:19:00;100948.56;;;29.79;30.64
75923;BME280;64602;47.542;19.090;2023-08-12T11:24:03;100952.19;;;29.64;29.79
75923;BME280;64602;47.542;19.090;2023-08-12T11:29:11;100938.31;;;29.87;30.97
75923;BME280;64602;47.542;19.090;2023-08-12T11:34:13;100927.81;;;30.03;30.97
75923;BME280;64602;47.542;19.090;2023-08-12T11:39:15;100929.00;;;30.02;30.89
75923;BME280;64602;47.542;19.090;2023-08-12T11:44:22;100930.56;;;29.60;31.16
75923;BME280;64602;47.542;19.090;2023-08-12T11:49:24;100924.03;;;29.72;32.53
75923;BME280;64602;47.542;19.090;2023-08-12T11:54:27;100920.12;;;29.77;32.94
75923;BME280;64602;47.542;19.090;2023-08-12T11:59:31;100918.37;;;29.49;32.12
75923;BME280;64602;47.542;19.090;2023-08-12T12:04:34;100924.00;;;29.92;33.18
75923;BME280;64602;47.542;19.090;2023-08-12T12:09:36;100911.97;;;30.11;33.09
75923;BME280;64602;47.542;19.090;2023-08-12T12:14:38;100896.53;;;30.20;32.59
75923;BME280;64602;47.542;19.090;2023-08-12T12:19:41;100890.59;;;30.02;32.10
75923;BME280;64602;47.542;19.090;2023-08-12T12:24:46;100905.56;;;30.33;32.50
75923;BME280;64602;47.542;19.090;2023-08-12T12:29:49;100881.84;;;29.61;31.61
75923;BME280;64602;47.542;19.090;2023-08-12T12:34:51;100883.53;;;30.32;32.27
75923;BME280;64602;47.542;19.090;2023-08-12T12:39:54;100863.56;;;30.83;32.20
75923;BME280;64602;47.542;19.090;2023-08-12T12:44:56;100868.94;;;30.95;31.78
75923;BME280;64602;47.542;19.090;2023-08-12T12:49:58;100857.34;;;31.30;31.95
75923;BME280;64602;47.542;19.090;2023-08-12T12:55:00;100858.41;;;31.49;31.67
75923;BME280;64602;47.542;19.090;2023-08-12T13:00:06;100863.41;;;31.66;30.75
75923;BME280;64602;47.542;19.090;2023-08-12T13:05:13;100858.25;;;32.13;30.71
75923;BME280;64602;47.542;19.090;2023-08-12T13:10:16;100850.78;;;32.31;30.66
75923;BME280;64602;47.542;19.090;2023-08-12T13:15:18;100844.94;;;32.51;30.33
75923;BME280;64602;47.542;19.090;2023-08-12T13:20:21;100850.59;;;32.58;29.48
75923;BME280;64602;47.542;19.090;2023-08-12T13:25:23;100835.94;;;33.00;29.29
75923;BME280;64602;47.542;19.090;2023-08-12T13:30:26;100843.37;;;33.48;29.14
75923;BME280;64602;47.542;19.090;2023-08-12T13:35:29;100833.81;;;33.92;28.64
75923;BME280;64602;47.542;19.090;2023-08-12T13:40:31;100825.78;;;33.98;28.29
75923;BME280;64602;47.542;19.090;2023-08-12T13:45:33;100825.41;;;34.14;27.24
75923;BME280;64602;47.542;19.090;2023-08-12T13:50:36;100825.81;;;34.23;27.14
75923;BME280;64602;47.542;19.090;2023-08-12T13:55:38;100824.19;;;34.18;27.24
75923;BME280;64602;47.542;19.090;2023-08-12T14:00:40;100816.91;;;34.57;27.37
75923;BME280;64602;47.542;19.090;2023-08-12T14:05:44;100809.97;;;34.86;26.93
75923;BME280;64602;47.542;19.090;2023-08-12T14:10:46;100809.50;;;35.06;26.98
75923;BME280;64602;47.542;19.090;2023-08-12T14:15:49;100798.25;;;34.95;26.77
75923;BME280;64602;47.542;19.090;2023-08-12T14:20:51;100789.72;;;35.13;26.84
75923;BME280;64602;47.542;19.090;2023-08-12T14:25:53;100791.12;;;35.50;27.09
75923;BME280;64602;47.542;19.090;2023-08-12T14:30:56;100791.91;;;35.50;26.90
75923;BME280;64602;47.542;19.090;2023-08-12T14:35:58;100791.19;;;35.39;26.64
75923;BME280;64602;47.542;19.090;2023-08-12T14:41:00;100780.31;;;35.38;26.58
75923;BME280;64602;47.542;19.090;2023-08-12T14:46:03;100765.25;;;35.55;26.44
75923;BME280;64602;47.542;19.090;2023-08-12T14:51:05;100782.31;;;35.41;26.86
75923;BME280;64602;47.542;19.090;2023-08-12T14:56:07;100776.78;;;35.23;26.99
75923;BME280;64602;47.542;19.090;2023-08-12T15:01:10;100765.16;;;35.06;27.53
75923;BME280;64602;47.542;19.090;2023-08-12T15:06:12;100754.91;;;34.46;27.75
75923;BME280;64602;47.542;19.090;2023-08-12T15:11:15;100759.81;;;34.17;28.35
75923;BME280;64602;47.542;19.090;2023-08-12T15:16:17;100736.88;;;33.75;29.06
75923;BME280;64602;47.542;19.090;2023-08-12T15:21:20;100734.81;;;33.47;29.23
75923;BME280;64602;47.542;19.090;2023-08-12T15:26:22;100729.50;;;33.03;29.26
75923;BME280;64602;47.542;19.090;2023-08-12T15:31:24;100735.78;;;32.67;29.90
75923;BME280;64602;47.542;19.090;2023-08-12T15:36:26;100727.25;;;31.87;30.73
75923;BME280;64602;47.542;19.090;2023-08-12T15:41:29;100712.28;;;31.27;31.77
75923;BME280;64602;47.542;19.090;2023-08-12T15:46:31;100712.09;;;30.76;32.49
75923;BME280;64602;47.542;19.090;2023-08-12T15:51:33;100708.06;;;30.39;33.46
75923;BME280;64602;47.542;19.090;2023-08-12T15:56:36;100713.47;;;30.02;33.97
75923;BME280;64602;47.542;19.090;2023-08-12T16:01:39;100702.97;;;29.69;34.32
75923;BME280;64602;47.542;19.090;2023-08-12T16:06:41;100694.37;;;29.35;34.89
75923;BME280;64602;47.542;19.090;2023-08-12T16:11:43;100698.97;;;29.04;36.30
75923;BME280;64602;47.542;19.090;2023-08-12T16:16:46;100693.34;;;28.81;35.88
75923;BME280;64602;47.542;19.090;2023-08-12T16:21:48;100706.06;;;28.59;36.55
75923;BME280;64602;47.542;19.090;2023-08-12T16:26:50;100695.06;;;28.31;37.51
75923;BME280;64602;47.542;19.090;2023-08-12T16:31:52;100698.88;;;28.23;38.12
75923;BME280;64602;47.542;19.090;2023-08-12T16:36:55;100699.53;;;28.16;38.33
75923;BME280;64602;47.542;19.090;2023-08-12T16:42:17;100701.44;;;28.12;38.58
75923;BME280;64602;47.542;19.090;2023-08-12T16:47:22;100684.47;;;27.85;38.95
75923;BME280;64602;47.542;19.090;2023-08-12T16:52:25;100688.31;;;27.81;39.38
75923;BME280;64602;47.542;19.090;2023-08-12T16:57:27;100692.38;;;27.52;39.99
75923;BME280;64602;47.542;19.090;2023-08-12T17:02:30;100699.22;;;27.38;39.88
75923;BME280;64602;47.542;19.090;2023-08-12T17:07:33;100697.13;;;27.35;39.98
75923;BME280;64602;47.542;19.090;2023-08-12T17:12:35;100695.94;;;27.20;40.55
75923;BME280;64602;47.542;19.090;2023-08-12T17:17:37;100707.50;;;27.06;40.91
75923;BME280;64602;47.542;19.090;2023-08-12T17:22:40;100703.28;;;26.97;40.63
75923;BME280;64602;47.542;19.090;2023-08-12T17:27:42;100698.03;;;26.67;41.37
75923;BME280;64602;47.542;19.090;2023-08-12T17:32:44;100718.50;;;26.59;42.04
75923;BME280;64602;47.542;19.090;2023-08-12T17:37:47;100705.16;;;26.40;42.33
75923;BME280;64602;47.542;19.090;2023-08-12T17:42:49;100703.59;;;26.27;42.68
75923;BME280;64602;47.542;19.090;2023-08-12T17:52:58;100700.22;;;25.84;43.11
75923;BME280;64602;47.542;19.090;2023-08-12T17:58:00;100711.13;;;25.77;43.13
75923;BME280;64602;47.542;19.090;2023-08-12T18:03:03;100702.44;;;25.54;43.51
75923;BME280;64602;47.542;19.090;2023-08-12T18:08:05;100717.34;;;25.37;44.19
75923;BME280;64602;47.542;19.090;2023-08-12T18:13:08;100721.59;;;25.22;44.32
75923;BME280;64602;47.542;19.090;2023-08-12T18:18:10;100716.62;;;25.07;44.69
75923;BME280;64602;47.542;19.090;2023-08-12T18:23:12;100728.41;;;24.91;45.19
75923;BME280;64602;47.542;19.090;2023-08-12T18:28:15;100738.28;;;24.80;46.11
75923;BME280;64602;47.542;19.090;2023-08-12T18:33:17;100733.22;;;24.61;46.72
75923;BME280;64602;47.542;19.090;2023-08-12T18:38:19;100739.22;;;24.42;47.37
75923;BME280;64602;47.542;19.090;2023-08-12T18:43:21;100749.75;;;24.28;48.37
75923;BME280;64602;47.542;19.090;2023-08-12T18:48:24;100754.53;;;24.19;48.21
75923;BME280;64602;47.542;19.090;2023-08-12T18:53:26;100760.31;;;24.05;49.08
75923;BME280;64602;47.542;19.090;2023-08-12T18:58:29;100760.88;;;23.89;50.29
75923;BME280;64602;47.542;19.090;2023-08-12T19:03:31;100758.84;;;23.69;50.95
75923;BME280;64602;47.542;19.090;2023-08-12T19:08:33;100773.50;;;23.61;51.75
75923;BME280;64602;47.542;19.090;2023-08-12T19:13:36;100777.94;;;23.44;52.48
75923;BME280;64602;47.542;19.090;2023-08-12T19:18:38;100781.72;;;23.31;53.09
75923;BME280;64602;47.542;19.090;2023-08-12T19:23:40;100789.41;;;23.17;53.66
75923;BME280;64602;47.542;19.090;2023-08-12T19:28:42;100783.34;;;22.89;54.73
75923;BME280;64602;47.542;19.090;2023-08-12T19:33:45;100777.16;;;22.74;54.94
75923;BME280;64602;47.542;19.090;2023-08-12T19:38:47;100792.78;;;22.61;56.05
75923;BME280;64602;47.542;19.090;2023-08-12T19:43:49;100780.56;;;22.54;55.93
75923;BME280;64602;47.542;19.090;2023-08-12T19:48:51;100788.53;;;22.47;56.63
75923;BME280;64602;47.542;19.090;2023-08-12T19:53:53;100787.03;;;22.32;57.66
75923;BME280;64602;47.542;19.090;2023-08-12T19:58:57;100788.47;;;22.21;58.65
75923;BME280;64602;47.542;19.090;2023-08-12T20:03:59;100796.22;;;22.18;59.39
75923;BME280;64602;47.542;19.090;2023-08-12T20:09:02;100791.47;;;22.02;60.24
75923;BME280;64602;47.542;19.090;2023-08-12T20:14:04;100789.66;;;21.97;60.74
75923;BME280;64602;47.542;19.090;2023-08-12T20:19:07;100794.34;;;21.88;61.64
75923;BME280;64602;47.542;19.090;2023-08-12T20:24:09;100812.53;;;21.89;62.19
75923;BME280;64602;47.542;19.090;2023-08-12T20:29:11;100806.47;;;21.78;62.81
75923;BME280;64602;47.542;19.090;2023-08-12T20:34:13;100808.69;;;21.67;63.75
75923;BME280;64602;47.542;19.090;2023-08-12T20:39:15;100820.63;;;21.54;64.65
75923;BME280;64602;47.542;19.090;2023-08-12T20:44:18;100812.41;;;21.40;65.66
75923;BME280;64602;47.542;19.090;2023-08-12T20:49:20;100815.53;;;21.25;66.31
75923;BME280;64602;47.542;19.090;2023-08-12T20:54:22;100814.66;;;21.16;66.70
75923;BME280;64602;47.542;19.090;2023-08-12T20:59:27;100811.00;;;21.06;66.96
75923;BME280;64602;47.542;19.090;2023-08-12T21:04:29;100818.59;;;21.01;67.68
75923;BME280;64602;47.542;19.090;2023-08-12T21:09:31;100831.88;;;20.99;67.93
75923;BME280;64602;47.542;19.090;2023-08-12T21:14:34;100825.16;;;20.91;68.13
75923;BME280;64602;47.542;19.090;2023-08-12T21:19:36;100821.31;;;20.78;68.63
75923;BME280;64602;47.542;19.090;2023-08-12T21:24:39;100820.81;;;20.76;68.96
75923;BME280;64602;47.542;19.090;2023-08-12T21:29:41;100812.87;;;20.61;69.29
75923;BME280;64602;47.542;19.090;2023-08-12T21:34:43;100813.06;;;20.50;69.65
75923;BME280;64602;47.542;19.090;2023-08-12T21:39:45;100813.78;;;20.42;69.96
75923;BME280;64602;47.542;19.090;2023-08-12T21:44:47;100833.19;;;20.37;70.25
75923;BME280;64602;47.542;19.090;2023-08-12T21:49:49;100814.81;;;20.19;70.72
75923;BME280;64602;47.542;19.090;2023-08-12T21:54:52;100822.38;;;20.13;71.45
75923;BME280;64602;47.542;19.090;2023-08-12T21:59:54;100826.44;;;20.02;71.11
75923;BME280;64602;47.542;19.090;2023-08-12T22:04:56;100816.75;;;19.91;71.38
75923;BME280;64602;47.542;19.090;2023-08-12T22:09:59;100803.47;;;19.79;71.85
75923;BME280;64602;47.542;19.090;2023-08-12T22:15:01;100797.38;;;19.63;72.41
75923;BME280;64602;47.542;19.090;2023-08-12T22:20:04;100806.91;;;19.71;72.58
75923;BME280;64602;47.542;19.090;2023-08-12T22:25:06;100798.72;;;19.65;72.47
75923;BME280;64602;47.542;19.090;2023-08-12T22:30:09;100804.22;;;19.65;72.79
75923;BME280;64602;47.542;19.090;2023-08-12T22:35:11;100802.56;;;19.51;73.18
75923;BME280;64602;47.542;19.090;2023-08-12T22:40:13;100798.19;;;19.50;73.56
75923;BME280;64602;47.542;19.090;2023-08-12T22:45:15;100806.47;;;19.31;74.70
75923;BME280;64602;47.542;19.090;2023-08-12T22:50:18;100806.47;;;19.31;74.79
75923;BME280;64602;47.542;19.090;2023-08-12T22:55:20;100793.69;;;19.21;74.81
75923;BME280;64602;47.542;19.090;2023-08-12T23:00:22;100793.19;;;19.19;75.08
75923;BME280;64602;47.542;19.090;2023-08-12T23:05:24;100796.00;;;19.14;75.67
75923;BME280;64602;47.542;19.090;2023-08-12T23:10:27;100804.62;;;19.07;75.98
75923;BME280;64602;47.542;19.090;2023-08-12T23:15:29;100796.47;;;19.02;76.13
75923;BME280;64602;47.542;19.090;2023-08-12T23:20:31;100790.97;;;18.83;76.83
75923;BME280;64602;47.542;19.090;2023-08-12T23:25:33;100795.38;;;18.84;77.04
75923;BME280;64602;47.542;19.090;2023-08-12T23:30:35;100779.53;;;18.76;77.19
75923;BME280;64602;47.542;19.090;2023-08-12T23:35:38;100783.66;;;18.73;77.50
75923;BME280;64602;47.542;19.090;2023-08-12T23:40:42;100793.31;;;18.71;77.83
75923;BME280;64602;47.542;19.090;2023-08-12T23:45:44;100796.75;;;18.63;78.08
75923;BME280;64602;47.542;19.090;2023-08-12T23:50:46;100803.72;;;18.55;78.12
75923;BME280;64602;47.542;19.090;2023-08-12T23:55:48;100790.34;;;18.48;78.13
